Time;durP1;ratioP1;P1;durP2;ratioP2;P2;SDS_P1;SDS_P2;PMS_P1;PMS_P2;Temp;Humidity;BMP_temperature;BMP_pressure;BME280_temperature;BME280_humidity;BME280_pressure;Samples;Min_cycle;Max_cycle;Signal;HPM_P1;HPM_P2
2024/04/11 00:00:08;;;;;;;2.25;1.00;;;12.80;97.70;;;;;;5537566;25;20813;-38
2024/04/11 00:02:33;;;;;;;2.25;0.90;;;12.80;97.40;;;;;;5534498;25;20001;-34
2024/04/11 00:04:59;;;;;;;2.92;0.90;;;12.80;97.50;;;;;;5542595;25;20008;-35
2024/04/11 00:07:25;;;;;;;2.47;1.20;;;12.80;97.50;;;;;;5529545;25;20000;-35
2024/04/11 00:09:50;;;;;;;3.42;1.02;;;12.80;97.60;;;;;;5545226;25;19997;-36
2024/04/11 00:12:16;;;;;;;4.47;1.30;;;12.90;97.60;;;;;;5527064;25;20019;-33
2024/04/11 00:14:44;;;;;;;1.88;0.85;;;12.80;97.60;;;;;;5545711;25;19996;-34
2024/04/11 00:17:11;;;;;;;2.60;1.10;;;12.80;97.60;;;;;;5524167;25;19993;-34
2024/04/11 00:19:37;;;;;;;5.47;1.60;;;12.80;97.60;;;;;;5509591;26;20022;-34
2024/04/11 00:22:05;;;;;;;3.47;1.00;;;12.80;97.70;;;;;;5533644;25;20033;-35
2024/04/11 00:24:35;;;;;;;2.20;0.95;;;12.80;97.70;;;;;;5510209;25;20002;-34
2024/04/11 00:27:01;;;;;;;3.15;1.33;;;12.80;97.70;;;;;;5532624;25;20004;-38
2024/04/11 00:29:27;;;;;;;3.95;1.13;;;12.90;97.70;;;;;;5509280;26;20013;-35
2024/04/11 00:31:54;;;;;;;4.97;1.48;;;12.90;97.70;;;;;;5530004;25;20000;-33
2024/04/11 00:34:23;;;;;;;3.85;1.13;;;12.90;97.70;;;;;;5511659;25;20043;-34
2024/04/11 00:36:50;;;;;;;2.05;1.13;;;12.90;97.70;;;;;;5526536;25;20117;-36
2024/04/11 00:39:20;;;;;;;3.50;1.20;;;12.90;97.70;;;;;;5516041;25;20037;-36
2024/04/11 00:41:47;;;;;;;3.55;1.10;;;12.90;97.70;;;;;;5527686;25;20040;-36
2024/04/11 00:44:16;;;;;;;3.97;1.00;;;12.90;97.70;;;;;;5523021;25;20001;-37
2024/04/11 00:46:42;;;;;;;2.72;1.20;;;12.90;97.70;;;;;;5523923;25;20077;-42
2024/04/11 00:49:09;;;;;;;3.22;1.23;;;12.90;97.70;;;;;;5527020;25;20041;-33
2024/04/11 00:51:34;;;;;;;2.42;0.90;;;12.90;97.70;;;;;;5519323;25;20028;-37
2024/04/11 00:54:00;;;;;;;1.90;0.90;;;12.90;97.80;;;;;;5530701;25;20005;-38
2024/04/11 00:56:26;;;;;;;2.00;0.88;;;12.90;97.80;;;;;;5545516;25;20569;-38
2024/04/11 00:58:52;;;;;;;4.70;2.13;;;12.90;97.80;;;;;;5529230;25;19997;-39
2024/04/11 01:01:18;;;;;;;3.00;1.05;;;13.00;97.80;;;;;;5547884;25;20129;-35
2024/04/11 01:03:50;;;;;;;2.53;0.90;;;12.90;97.80;;;;;;5524599;25;20004;-37
2024/04/11 01:06:17;;;;;;;3.37;1.20;;;12.90;97.80;;;;;;5550130;25;20481;-34
2024/04/11 01:08:46;;;;;;;3.38;1.40;;;13.00;97.90;;;;;;5524721;25;20579;-37
2024/04/11 01:11:11;;;;;;;3.05;0.90;;;12.90;97.90;;;;;;5550175;25;20005;-39
2024/04/11 01:13:37;;;;;;;2.10;0.90;;;12.90;98.00;;;;;;5526076;25;20215;-37
2024/04/11 01:16:05;;;;;;;1.83;0.70;;;13.00;98.00;;;;;;5550042;25;20000;-38
2024/04/11 01:18:31;;;;;;;2.08;0.95;;;13.00;98.00;;;;;;5526844;25;20029;-37
2024/04/11 01:20:57;;;;;;;4.10;0.90;;;13.00;98.00;;;;;;5549187;25;19996;-35
2024/04/11 01:23:23;;;;;;;4.85;1.48;;;13.00;98.00;;;;;;5531920;25;20003;-37
2024/04/11 01:25:48;;;;;;;1.17;0.60;;;13.00;98.00;;;;;;5543485;25;20008;-35
2024/04/11 01:28:14;;;;;;;3.38;0.95;;;13.00;98.00;;;;;;5533001;25;20000;-38
2024/04/11 01:30:41;;;;;;;3.10;1.10;;;13.10;98.00;;;;;;5523634;25;20012;-37
2024/04/11 01:33:09;;;;;;;2.25;1.10;;;13.10;98.00;;;;;;5519834;25;19993;-38
2024/04/11 01:35:35;;;;;;;3.90;1.13;;;13.10;98.00;;;;;;5527758;25;20002;-36
2024/04/11 01:38:01;;;;;;;1.75;1.02;;;13.10;98.00;;;;;;5517096;25;20013;-36
2024/04/11 01:40:34;;;;;;;2.28;1.10;;;13.10;98.00;;;;;;5531734;25;19997;-37
2024/04/11 01:43:00;;;;;;;2.92;1.15;;;13.10;98.00;;;;;;5515181;25;20337;-38
2024/04/11 01:45:26;;;;;;;1.83;1.00;;;13.10;98.00;;;;;;5532792;25;20468;-37
2024/04/11 01:47:53;;;;;;;3.00;0.95;;;13.20;98.00;;;;;;5514035;25;19998;-35
2024/04/11 01:50:18;;;;;;;5.32;1.13;;;13.20;98.00;;;;;;5532487;25;19997;-35
2024/04/11 01:52:44;;;;;;;1.88;0.90;;;13.20;98.00;;;;;;5512779;25;20011;-37
2024/04/11 01:55:09;;;;;;;3.55;1.38;;;13.20;98.00;;;;;;5524800;25;20008;-38
2024/04/11 01:57:37;;;;;;;2.92;0.93;;;13.20;97.90;;;;;;5512056;25;19998;-36
2024/04/11 02:00:12;;;;;;;4.82;1.15;;;13.20;98.00;;;;;;5536206;25;20005;-37
2024/04/11 02:02:44;;;;;;;2.75;1.08;;;13.20;98.00;;;;;;5513093;26;20844;-36
2024/04/11 02:05:11;;;;;;;2.50;0.95;;;13.20;97.90;;;;;;5536389;25;20038;-37
2024/04/11 02:07:38;;;;;;;2.35;1.02;;;13.20;98.00;;;;;;5512723;25;20347;-35
2024/04/11 02:10:05;;;;;;;2.67;0.82;;;13.20;98.20;;;;;;5531371;25;20007;-37
2024/04/11 02:12:31;;;;;;;5.25;1.30;;;13.30;98.00;;;;;;5515207;25;20001;-37
2024/04/11 02:14:56;;;;;;;3.17;1.08;;;13.30;97.90;;;;;;5526691;25;20341;-38
2024/04/11 02:17:22;;;;;;;3.95;1.05;;;13.30;98.00;;;;;;5520542;25;19993;-36
2024/04/11 02:19:48;;;;;;;4.35;1.30;;;13.30;97.90;;;;;;5521771;25;20060;-38
2024/04/11 02:22:17;;;;;;;3.63;1.10;;;13.30;98.00;;;;;;5524902;25;20004;-32
2024/04/11 02:24:43;;;;;;;2.30;1.20;;;13.30;98.00;;;;;;5517836;25;20001;-38
2024/04/11 02:27:09;;;;;;;2.35;0.82;;;13.30;98.00;;;;;;5528611;25;20044;-38
2024/04/11 02:29:35;;;;;;;3.97;1.05;;;13.30;97.90;;;;;;5514109;25;19997;-36
2024/04/11 02:32:02;;;;;;;1.75;0.88;;;13.30;98.00;;;;;;5532731;25;20077;-36
2024/04/11 02:34:28;;;;;;;2.35;0.95;;;13.30;98.00;;;;;;5513639;25;20012;-38
2024/04/11 02:36:54;;;;;;;2.70;1.17;;;13.30;98.00;;;;;;5532826;25;19998;-37
2024/04/11 02:39:20;;;;;;;3.15;1.10;;;13.30;98.00;;;;;;5512046;25;19998;-34
2024/04/11 02:41:46;;;;;;;3.08;1.17;;;13.30;98.00;;;;;;5534468;25;20841;-37
2024/04/11 02:44:12;;;;;;;2.83;1.27;;;13.30;98.00;;;;;;5511023;26;20978;-36
2024/04/11 02:46:39;;;;;;;3.85;1.20;;;13.30;98.10;;;;;;5534054;25;20000;-37
2024/04/11 02:49:05;;;;;;;2.65;1.00;;;13.30;98.00;;;;;;5511231;25;20033;-36
2024/04/11 02:51:31;;;;;;;2.00;0.90;;;13.30;98.00;;;;;;5531283;25;20001;-34
2024/04/11 02:53:58;;;;;;;2.08;0.90;;;13.30;98.00;;;;;;5514323;25;20008;-36
2024/04/11 02:56:26;;;;;;;3.60;1.30;;;13.30;98.00;;;;;;5528695;25;19997;-35
2024/04/11 02:58:55;;;;;;;3.88;1.20;;;13.30;98.00;;;;;;5542365;25;19996;-37
2024/04/11 03:01:21;;;;;;;5.10;1.50;;;13.30;97.90;;;;;;5536892;25;20010;-37
2024/04/11 03:03:47;;;;;;;2.90;1.00;;;13.30;97.90;;;;;;5538457;25;20529;-35
2024/04/11 03:06:21;;;;;;;4.68;1.02;;;13.30;98.00;;;;;;5540671;25;20024;-35
2024/04/11 03:08:52;;;;;;;3.58;1.10;;;13.30;98.00;;;;;;5536343;25;19996;-36
2024/04/11 03:11:18;;;;;;;3.53;1.17;;;13.30;98.00;;;;;;5541359;25;20008;-34
2024/04/11 03:13:44;;;;;;;3.67;1.00;;;13.30;98.00;;;;;;5532428;25;20001;-35
2024/04/11 03:16:14;;;;;;;3.28;1.27;;;13.30;98.00;;;;;;5544699;25;20000;-37
2024/04/11 03:18:40;;;;;;;2.75;1.27;;;13.30;98.00;;;;;;5508111;25;20011;-37
2024/04/11 03:21:06;;;;;;;3.75;1.30;;;13.30;98.10;;;;;;5546473;25;20407;-36
2024/04/11 03:23:32;;;;;;;2.90;1.10;;;13.30;98.10;;;;;;5527610;25;20009;-37
2024/04/11 03:26:01;;;;;;;3.88;1.20;;;13.40;98.10;;;;;;5547894;25;20032;-34
2024/04/11 03:28:29;;;;;;;2.20;1.10;;;13.30;98.10;;;;;;5527150;25;20368;-38
2024/04/11 03:30:56;;;;;;;6.10;1.20;;;13.30;98.10;;;;;;5548573;25;20004;-38
2024/04/11 03:33:22;;;;;;;3.97;1.20;;;13.30;98.10;;;;;;5521428;25;19996;-35
2024/04/11 03:35:54;;;;;;;2.95;1.30;;;13.30;98.10;;;;;;5510752;26;20434;-39
2024/04/11 03:38:20;;;;;;;3.45;1.38;;;13.30;98.10;;;;;;5534443;25;20000;-34
2024/04/11 03:41:04;;;;;;;3.75;1.38;;;13.30;98.10;;;;;;5511340;25;20856;-37
2024/04/11 03:43:33;;;;;;;5.82;1.52;;;13.30;98.20;;;;;;5534420;25;20049;-38
2024/04/11 03:46:19;;;;;;;4.63;1.17;;;13.30;98.20;;;;;;5510866;26;20013;-36
2024/04/11 03:48:56;;;;;;;2.13;1.20;;;13.30;98.30;;;;;;5534490;25;20033;-37
2024/04/11 03:51:24;;;;;;;5.93;1.20;;;13.40;98.30;;;;;;5510897;26;20005;-37
2024/04/11 03:53:51;;;;;;;2.97;1.33;;;13.30;98.30;;;;;;5533358;25;20008;-36
2024/04/11 03:56:21;;;;;;;4.25;1.52;;;13.30;98.40;;;;;;5541590;25;20046;-39
2024/04/11 03:58:47;;;;;;;4.22;1.10;;;13.30;98.40;;;;;;5526566;25;20002;-36
2024/04/11 04:01:15;;;;;;;2.53;1.00;;;13.30;98.40;;;;;;5546340;25;20005;-34
2024/04/11 04:03:42;;;;;;;2.83;0.82;;;13.30;98.50;;;;;;5530980;25;20053;-33
2024/04/11 04:06:08;;;;;;;5.00;1.52;;;13.30;98.50;;;;;;5541824;25;20924;-35
2024/04/11 04:08:35;;;;;;;3.80;1.17;;;13.30;98.50;;;;;;5534101;25;19993;-39
2024/04/11 04:11:01;;;;;;;1.65;0.93;;;13.30;98.60;;;;;;5536276;25;20491;-35
2024/04/11 04:13:28;;;;;;;2.38;0.93;;;13.30;98.60;;;;;;5539678;25;20013;-37
2024/04/11 04:15:57;;;;;;;1.98;0.80;;;13.30;98.70;;;;;;5535640;25;20016;-36
2024/04/11 04:18:25;;;;;;;2.75;1.05;;;13.30;98.70;;;;;;5546764;25;20068;-35
2024/04/11 04:20:57;;;;;;;1.67;0.90;;;13.30;98.70;;;;;;5533500;25;20034;-39
2024/04/11 04:23:26;;;;;;;;;;;13.30;98.80;;;;;;5549060;25;20019;-37
2024/04/11 04:26:14;;;;;;;2.42;1.10;;;13.30;98.80;;;;;;5529905;25;20473;-37
2024/04/11 04:28:40;;;;;;;3.45;1.08;;;13.30;98.80;;;;;;5546718;25;20013;-34
2024/04/11 04:31:14;;;;;;;3.33;1.17;;;13.30;98.90;;;;;;5530793;25;20498;-36
2024/04/11 04:33:41;;;;;;;4.00;1.20;;;13.30;99.00;;;;;;5547731;25;19997;-34
2024/04/11 04:36:07;;;;;;;3.63;1.30;;;13.30;99.40;;;;;;5529329;25;20024;-34
2024/04/11 04:38:34;;;;;;;4.22;1.23;;;13.20;99.10;;;;;;5548311;25;20007;-37
2024/04/11 04:41:01;;;;;;;3.65;1.55;;;13.20;99.20;;;;;;5529584;25;19997;-31
2024/04/11 04:43:28;;;;;;;3.67;1.02;;;13.20;99.20;;;;;;5550125;25;20004;-36
2024/04/11 04:45:57;;;;;;;2.40;0.88;;;13.20;99.30;;;;;;5526940;25;20011;-38
2024/04/11 04:48:23;;;;;;;2.13;0.90;;;13.20;99.30;;;;;;5551254;25;19993;-36
2024/04/11 04:50:49;;;;;;;3.00;1.10;;;13.20;99.30;;;;;;5526621;25;19997;-31
2024/04/11 04:53:14;;;;;;;3.80;1.02;;;13.20;99.40;;;;;;5551181;25;20049;-41
2024/04/11 04:55:41;;;;;;;2.60;1.10;;;13.20;99.50;;;;;;5528749;25;20009;-38
2024/04/11 04:58:09;;;;;;;4.07;1.05;;;13.20;99.50;;;;;;5549689;25;20428;-38
2024/04/11 05:00:35;;;;;;;2.30;1.10;;;13.20;99.60;;;;;;5533319;25;20007;-36
2024/04/11 05:03:08;;;;;;;2.28;0.90;;;13.20;99.60;;;;;;5544325;25;19996;-34
2024/04/11 05:05:40;;;;;;;;;;;13.20;99.60;;;;;;5536395;25;20020;-36
2024/04/11 05:08:13;;;;;;;2.58;0.88;;;13.20;99.70;;;;;;5540828;25;19931;-37
2024/04/11 05:10:53;;;;;;;2.38;0.80;;;13.20;99.70;;;;;;5534692;25;20012;-37
2024/04/11 05:13:26;;;;;;;3.20;1.30;;;13.20;99.80;;;;;;5541743;25;20891;-39
2024/04/11 05:15:57;;;;;;;2.28;1.00;;;13.20;99.80;;;;;;5536026;25;20013;-33
2024/04/11 05:18:23;;;;;;;3.22;1.00;;;13.20;99.90;;;;;;5540531;25;20034;-36
2024/04/11 05:20:51;;;;;;;4.00;0.90;;;13.20;99.90;;;;;;5539685;25;19997;-35
2024/04/11 05:23:17;;;;;;;1.92;0.80;;;13.20;99.90;;;;;;5537117;25;19996;-36
2024/04/11 05:25:43;;;;;;;3.70;0.85;;;13.20;99.90;;;;;;5541514;25;20567;-37
2024/04/11 05:28:09;;;;;;;3.00;1.00;;;13.20;99.90;;;;;;5530427;25;20760;-39
2024/04/11 05:30:39;;;;;;;3.05;1.17;;;13.20;99.90;;;;;;5545229;25;20069;-35
2024/04/11 05:33:08;;;;;;;3.80;1.35;;;13.20;99.90;;;;;;5526883;25;20109;-35
2024/04/11 05:35:35;;;;;;;2.95;1.10;;;13.20;99.90;;;;;;5545391;25;20800;-39
2024/04/11 05:38:00;;;;;;;2.75;1.20;;;13.20;99.90;;;;;;5526419;25;20431;-40
2024/04/11 05:40:27;;;;;;;1.08;0.90;;;13.20;99.90;;;;;;5549430;25;20033;-40
2024/04/11 05:42:53;;;;;;;3.83;1.20;;;13.20;99.90;;;;;;5526501;25;20001;-36
2024/04/11 05:45:21;;;;;;;2.85;1.10;;;13.30;99.90;;;;;;5549604;25;20041;-38
2024/04/11 05:47:47;;;;;;;1.52;1.00;;;13.30;99.90;;;;;;5525563;25;20035;-36
2024/04/11 05:50:15;;;;;;;1.92;0.95;;;13.30;99.90;;;;;;5549658;25;20015;-38
2024/04/11 05:52:47;;;;;;;1.60;0.90;;;13.30;99.90;;;;;;5526974;25;20462;-36
2024/04/11 05:55:14;;;;;;;1.50;0.85;;;13.30;99.90;;;;;;5498509;25;20041;-36
2024/04/11 05:57:43;;;;;;;3.03;1.13;;;13.30;99.90;;;;;;5530241;25;20005;-38
2024/04/11 06:00:11;;;;;;;2.25;0.93;;;13.30;99.90;;;;;;5544662;25;19993;-39
2024/04/11 06:02:41;;;;;;;2.97;0.95;;;13.30;99.90;;;;;;5532833;25;20005;-37
2024/04/11 06:05:07;;;;;;;2.13;0.80;;;13.30;99.90;;;;;;5543340;25;19996;-35
2024/04/11 06:07:39;;;;;;;2.92;0.90;;;13.30;99.90;;;;;;5536597;25;19998;-37
2024/04/11 06:10:06;;;;;;;3.88;1.40;;;13.40;99.90;;;;;;5539067;25;20009;-37
2024/04/11 06:12:35;;;;;;;3.55;1.02;;;13.40;99.90;;;;;;5538558;25;20037;-35
2024/04/11 06:15:02;;;;;;;3.05;1.10;;;13.40;99.90;;;;;;5534987;25;20012;-35
2024/04/11 06:17:28;;;;;;;3.20;1.38;;;13.40;99.90;;;;;;5542200;25;20029;-34
2024/04/11 06:19:55;;;;;;;3.25;1.02;;;13.40;99.90;;;;;;5530964;25;19997;-34
2024/04/11 06:22:21;;;;;;;1.80;1.00;;;13.40;99.90;;;;;;5545282;25;20000;-37
2024/04/11 06:24:47;;;;;;;2.45;1.08;;;13.40;99.90;;;;;;5528223;25;20046;-39
2024/04/11 06:27:13;;;;;;;3.15;1.00;;;13.30;99.90;;;;;;5546083;25;19997;-35
2024/04/11 06:29:42;;;;;;;3.30;1.00;;;13.30;99.90;;;;;;5527487;25;20033;-38
2024/04/11 06:32:12;;;;;;;2.67;1.00;;;13.30;99.90;;;;;;5547600;25;20093;-35
2024/04/11 06:34:42;;;;;;;3.78;1.35;;;13.30;99.90;;;;;;5521741;25;19997;-38
2024/04/11 06:37:11;;;;;;;2.38;1.20;;;13.30;99.90;;;;;;5544078;25;20056;-36
2024/04/11 06:39:40;;;;;;;3.55;1.10;;;13.20;99.90;;;;;;5521641;25;19998;-38
2024/04/11 06:42:13;;;;;;;2.10;1.15;;;13.20;99.90;;;;;;5545471;25;20011;-38
2024/04/11 06:44:45;;;;;;;2.42;1.10;;;13.20;99.90;;;;;;5521985;25;20065;-37
2024/04/11 06:47:13;;;;;;;2.35;1.00;;;13.10;99.90;;;;;;5546001;25;20036;-37
2024/04/11 06:49:39;;;;;;;1.85;0.90;;;13.20;99.90;;;;;;5523606;25;19997;-37
2024/04/11 06:52:05;;;;;;;1.90;0.90;;;13.20;99.90;;;;;;5548757;25;20336;-37
2024/04/11 06:54:33;;;;;;;1.90;1.02;;;13.20;99.90;;;;;;5530332;25;20001;-40
2024/04/11 06:57:03;;;;;;;3.20;1.15;;;13.10;99.90;;;;;;5548417;25;20000;-38
2024/04/11 06:59:30;;;;;;;2.03;0.82;;;13.10;99.90;;;;;;5533005;25;20016;-35
2024/04/11 07:01:58;;;;;;;2.05;1.02;;;13.20;99.90;;;;;;5541361;25;20012;-36
2024/04/11 07:04:23;;;;;;;3.03;1.10;;;13.20;99.90;;;;;;5536473;25;20009;-38
2024/04/11 07:06:49;;;;;;;2.50;1.10;;;13.30;99.90;;;;;;5536503;25;20044;-39
2024/04/11 07:09:15;;;;;;;2.40;0.98;;;13.20;99.90;;;;;;5542315;25;20044;-39
2024/04/11 07:11:41;;;;;;;0.85;0.80;;;13.30;99.90;;;;;;5531397;25;20029;-38
2024/04/11 07:14:15;;;;;;;1.85;0.93;;;13.20;99.90;;;;;;5545594;25;20507;-36
2024/04/11 07:16:44;;;;;;;1.58;0.90;;;13.20;99.90;;;;;;5511122;25;20009;-38
2024/04/11 07:19:14;;;;;;;1.30;0.90;;;13.20;99.90;;;;;;5545963;25;20020;-35
2024/04/11 07:21:43;;;;;;;1.75;1.15;;;13.20;99.90;;;;;;5527295;25;20088;-34
2024/04/11 07:24:09;;;;;;;1.70;1.00;;;13.20;99.90;;;;;;5544794;25;20332;-37
2024/04/11 07:26:38;;;;;;;2.83;1.00;;;13.30;99.90;;;;;;5525526;25;19996;-39
2024/04/11 07:29:05;;;;;;;3.53;1.30;;;13.30;99.90;;;;;;5547476;25;19993;-37
2024/04/11 07:31:36;;;;;;;2.38;1.10;;;13.30;99.90;;;;;;5524200;25;20004;-39
2024/04/11 07:34:02;;;;;;;2.20;1.00;;;13.30;99.90;;;;;;5548408;25;20000;-34
2024/04/11 07:36:30;;;;;;;2.28;1.05;;;13.30;99.90;;;;;;5524023;25;20006;-35
2024/04/11 07:38:57;;;;;;;2.58;1.17;;;13.30;99.90;;;;;;5545219;25;19999;-35
2024/04/11 07:41:27;;;;;;;1.90;0.90;;;13.30;99.90;;;;;;5523447;25;20013;-34
2024/04/11 07:43:59;;;;;;;2.13;1.10;;;13.30;99.90;;;;;;5473635;26;19998;-38
2024/04/11 07:46:29;;;;;;;2.55;0.98;;;13.30;99.90;;;;;;5523578;25;20456;-37
2024/04/11 07:48:56;;;;;;;1.33;1.00;;;13.20;99.90;;;;;;5512987;25;20041;-37
2024/04/11 07:51:22;;;;;;;1.25;0.80;;;13.30;99.90;;;;;;5529955;25;20000;-42
2024/04/11 07:53:49;;;;;;;1.58;0.90;;;13.30;99.90;;;;;;5518975;25;20008;-36
2024/04/11 07:56:19;;;;;;;2.47;1.10;;;13.30;99.90;;;;;;5524917;25;20418;-36
2024/04/11 07:58:58;;;;;;;2.45;1.00;;;13.30;99.90;;;;;;5543358;25;20008;-38
2024/04/11 08:01:36;;;;;;;4.25;1.20;;;13.40;99.90;;;;;;5537372;25;20006;-36
2024/04/11 08:04:04;;;;;;;3.15;1.10;;;13.40;99.90;;;;;;5543939;25;20868;-36
2024/04/11 08:06:31;;;;;;;1.35;1.00;;;13.40;99.90;;;;;;5538843;25;20073;-38
2024/04/11 08:08:57;;;;;;;2.17;1.00;;;13.40;99.90;;;;;;5539881;25;20008;-39
2024/04/11 08:11:24;;;;;;;2.45;1.17;;;13.40;99.90;;;;;;5543897;25;19997;-36
2024/04/11 08:13:52;;;;;;;4.05;1.20;;;13.40;99.90;;;;;;5536060;25;20013;-38
2024/04/11 08:16:18;;;;;;;1.77;0.90;;;13.40;99.90;;;;;;5548402;25;20053;-37
2024/04/11 08:18:45;;;;;;;1.63;0.93;;;13.40;99.90;;;;;;5532027;25;20004;-37
2024/04/11 08:21:13;;;;;;;2.33;1.20;;;13.40;99.90;;;;;;5548021;25;20061;-39
2024/04/11 08:23:40;;;;;;;5.43;1.33;;;13.50;99.90;;;;;;5529867;25;20007;-36
2024/04/11 08:26:07;;;;;;;3.92;1.40;;;13.50;99.90;;;;;;5548216;25;20004;-34
2024/04/11 08:28:37;;;;;;;3.78;1.30;;;13.50;99.90;;;;;;5526730;25;20075;-36
2024/04/11 08:31:06;;;;;;;2.17;0.93;;;13.40;99.90;;;;;;5513500;26;20065;-39
2024/04/11 08:33:36;;;;;;;2.15;1.10;;;13.40;99.90;;;;;;5534998;25;20012;-39
2024/04/11 08:36:08;;;;;;;3.72;1.58;;;13.50;99.90;;;;;;5513024;26;20455;-39
2024/04/11 08:38:34;;;;;;;1.67;1.27;;;13.50;99.90;;;;;;5536365;25;20003;-37
2024/04/11 08:41:07;;;;;;;4.57;1.75;;;13.50;99.90;;;;;;5513320;26;19997;-35
2024/04/11 08:43:35;;;;;;;2.05;1.25;;;13.60;99.90;;;;;;5536122;25;20045;-37
2024/04/11 08:46:06;;;;;;;4.22;1.42;;;13.60;99.90;;;;;;5512766;25;20009;-36
2024/04/11 08:48:32;;;;;;;3.83;1.13;;;13.60;99.90;;;;;;5534706;25;20020;-37
2024/04/11 08:51:14;;;;;;;2.83;1.35;;;13.60;99.90;;;;;;5514366;25;20006;-38
2024/04/11 08:53:44;;;;;;;3.17;1.48;;;13.70;99.90;;;;;;5534582;25;20012;-35
2024/04/11 08:56:13;;;;;;;3.60;1.50;;;13.70;99.90;;;;;;5536017;25;19997;-37
2024/04/11 08:58:43;;;;;;;1.58;1.10;;;13.80;99.90;;;;;;5531405;25;20006;-32
2024/04/11 09:01:15;;;;;;;2.40;1.20;;;13.80;99.90;;;;;;5545864;25;20336;-35
2024/04/11 09:03:41;;;;;;;3.75;1.73;;;13.80;99.90;;;;;;5533080;25;20004;-38
2024/04/11 09:06:11;;;;;;;3.03;1.33;;;13.80;99.90;;;;;;5543710;25;20379;-37
2024/04/11 09:08:37;;;;;;;3.00;1.38;;;13.80;99.90;;;;;;5537734;25;20040;-36
2024/04/11 09:11:05;;;;;;;3.13;1.50;;;13.90;99.90;;;;;;5539477;25;20011;-38
2024/04/11 09:13:30;;;;;;;2.55;1.30;;;13.90;99.90;;;;;;5541613;25;20927;-38
2024/04/11 09:16:06;;;;;;;1.55;1.30;;;13.90;99.90;;;;;;5535203;25;20003;-37
2024/04/11 09:18:34;;;;;;;2.65;1.80;;;13.90;99.90;;;;;;5543186;25;20821;-38
2024/04/11 09:21:04;;;;;;;3.28;1.50;;;14.00;99.90;;;;;;5532756;25;20325;-38
2024/04/11 09:23:34;;;;;;;3.17;1.15;;;14.00;99.90;;;;;;5546725;25;20918;-37
2024/04/11 09:26:55;;;;;;;3.08;1.30;;;14.10;99.90;;;;;;5530650;25;20081;-36
2024/04/11 09:28:59;;;;;;;1.50;1.00;;;14.10;99.90;;;;;;5526597;25;19996;-36
2024/04/11 09:31:26;;;;;;;2.25;1.23;;;14.20;99.90;;;;;;5534101;25;20007;-35
2024/04/11 09:33:57;;;;;;;3.47;1.42;;;14.20;99.90;;;;;;5546275;25;20005;-38
2024/04/11 09:36:27;;;;;;;5.25;1.45;;;14.30;99.90;;;;;;5531001;25;20012;-36
2024/04/11 09:39:05;;;;;;;3.47;1.63;;;14.40;99.90;;;;;;5546572;25;20008;-38
2024/04/11 09:41:34;;;;;;;2.88;1.65;;;14.40;99.90;;;;;;5511400;25;20008;-36
2024/04/11 09:44:06;;;;;;;7.95;3.10;;;14.40;99.90;;;;;;5547347;25;20001;-35
2024/04/11 09:46:40;;;;;;;9.98;4.25;;;14.40;99.90;;;;;;5529248;25;19996;-38
2024/04/11 09:49:09;;;;;;;5.97;2.92;;;14.40;99.90;;;;;;5546987;25;19997;-38
2024/04/11 09:51:37;;;;;;;7.15;3.08;;;14.40;99.90;;;;;;5528887;25;20008;-38
2024/04/11 09:54:12;;;;;;;9.02;3.30;;;14.40;99.90;;;;;;5546445;25;20046;-37
2024/04/11 09:56:42;;;;;;;7.75;2.70;;;14.40;99.90;;;;;;5511913;25;20750;-36
2024/04/11 09:59:09;;;;;;;4.93;2.50;;;14.40;99.90;;;;;;5512868;25;20005;-34
2024/04/11 10:01:38;;;;;;;3.50;2.30;;;14.40;99.90;;;;;;5527049;25;19992;-36
2024/04/11 10:04:24;;;;;;;3.35;2.05;;;14.40;99.90;;;;;;5549882;25;20005;-34
2024/04/11 10:06:53;;;;;;;3.88;2.40;;;14.40;99.90;;;;;;5527699;25;20001;-37
2024/04/11 10:09:29;;;;;;;4.07;2.30;;;14.40;99.90;;;;;;5549778;25;20431;-37
2024/04/11 10:12:02;;;;;;;3.25;1.98;;;14.40;99.90;;;;;;5526875;25;20003;-38
2024/04/11 10:14:32;;;;;;;4.40;2.92;;;14.40;99.90;;;;;;5549645;25;20459;-36
2024/04/11 10:17:02;;;;;;;5.95;2.92;;;14.50;99.90;;;;;;5525592;25;20081;-37
2024/04/11 10:19:32;;;;;;;5.75;3.05;;;14.40;99.90;;;;;;5549901;25;19997;-37
2024/04/11 10:22:06;;;;;;;5.45;3.58;;;14.30;99.90;;;;;;5525652;25;20077;-35
2024/04/11 10:24:38;;;;;;;4.57;3.13;;;14.30;99.90;;;;;;5550172;25;20588;-32
2024/04/11 10:27:20;;;;;;;;;;;14.30;99.90;;;;;;5526295;25;19997;-37
2024/04/11 10:29:47;;;;;;;3.13;2.53;;;14.30;99.90;;;;;;5549475;25;19923;-37
2024/04/11 10:32:35;;;;;;;4.18;2.80;;;14.30;99.90;;;;;;5525836;25;20015;-36
2024/04/11 10:35:04;;;;;;;3.35;2.90;;;14.30;99.90;;;;;;5548956;25;20392;-37
2024/04/11 10:37:33;;;;;;;3.78;2.85;;;14.40;99.90;;;;;;5525624;25;19997;-37
2024/04/11 10:40:00;;;;;;;3.92;2.30;;;14.40;99.90;;;;;;5549026;25;20004;-38
2024/04/11 10:42:39;;;;;;;3.65;2.67;;;14.40;99.90;;;;;;5524727;25;20749;-39
2024/04/11 10:45:10;;;;;;;5.03;3.60;;;14.50;99.90;;;;;;5548320;25;20560;-35
2024/04/11 10:47:38;;;;;;;4.82;3.50;;;14.40;99.90;;;;;;5525135;25;20005;-38
2024/04/11 10:50:09;;;;;;;5.07;3.28;;;14.40;99.90;;;;;;5548613;25;19997;-38
2024/04/11 10:52:39;;;;;;;3.42;3.00;;;14.50;99.90;;;;;;5528100;25;20010;-36
2024/04/11 10:55:12;;;;;;;5.60;3.67;;;14.40;99.90;;;;;;5544647;25;20008;-38
2024/04/11 10:57:44;;;;;;;5.55;4.13;;;14.40;99.90;;;;;;5529489;25;19997;-38
2024/04/11 11:00:11;;;;;;;4.47;4.03;;;14.40;99.90;;;;;;5513953;25;20058;-37
2024/04/11 11:02:42;;;;;;;4.85;4.35;;;14.40;99.90;;;;;;5526806;25;20008;-34
2024/04/11 11:05:08;;;;;;;5.28;4.60;;;14.40;99.90;;;;;;5517914;25;19993;-38
2024/04/11 11:07:40;;;;;;;5.35;4.82;;;14.40;99.90;;;;;;5523316;25;20084;-38
2024/04/11 11:10:13;;;;;;;4.00;3.70;;;14.40;99.90;;;;;;5520303;25;19997;-37
2024/04/11 11:12:45;;;;;;;6.43;4.50;;;14.50;99.90;;;;;;5521647;25;20007;-38
2024/04/11 11:15:13;;;;;;;4.63;4.10;;;14.50;99.90;;;;;;5521549;25;20561;-38
2024/04/11 11:17:39;;;;;;;4.03;3.60;;;14.50;99.90;;;;;;5518675;25;20443;-37
2024/04/11 11:20:09;;;;;;;4.80;4.30;;;14.50;99.90;;;;;;5525244;25;20329;-38
2024/04/11 11:22:40;;;;;;;5.80;4.03;;;14.50;99.90;;;;;;5515350;25;20083;-37
2024/04/11 11:25:08;;;;;;;6.25;5.65;;;14.60;99.90;;;;;;5528035;25;20001;-36
2024/04/11 11:27:35;;;;;;;4.82;4.43;;;14.60;99.90;;;;;;5512873;25;20914;-38
2024/04/11 11:30:00;;;;;;;5.68;4.28;;;14.60;99.90;;;;;;5532345;25;20011;-37
2024/04/11 11:32:26;;;;;;;4.85;4.35;;;14.60;99.90;;;;;;5512270;25;20002;-36
2024/04/11 11:34:52;;;;;;;6.65;4.45;;;14.60;99.90;;;;;;5531468;25;20012;-34
2024/04/11 11:37:23;;;;;;;5.35;4.07;;;14.60;99.90;;;;;;5511258;25;19997;-36
2024/04/11 11:39:55;;;;;;;5.13;3.50;;;14.60;99.90;;;;;;5522944;25;20000;-38
2024/04/11 11:42:26;;;;;;;4.57;3.95;;;14.60;99.90;;;;;;5547589;25;20015;-38
2024/04/11 11:47:33;;;;;;;3.95;3.40;;;14.70;99.90;;;;;;5547061;25;20016;-36
2024/04/11 11:50:16;;;;;;;5.82;4.90;;;14.70;99.90;;;;;;5523990;25;20614;-38
2024/04/11 11:52:43;;;;;;;6.90;4.63;;;14.70;99.90;;;;;;5546751;25;20066;-36
2024/04/11 11:55:18;;;;;;;3.40;3.10;;;14.70;99.90;;;;;;5520505;25;20011;-36
2024/04/11 11:57:47;;;;;;;4.20;3.80;;;14.70;99.90;;;;;;5510290;26;20008;-37
2024/04/11 12:00:21;;;;;;;4.63;3.60;;;14.70;99.90;;;;;;5532853;25;20005;-38
2024/04/11 12:02:52;;;;;;;4.85;4.10;;;14.80;99.90;;;;;;5510785;26;20405;-36
2024/04/11 12:05:25;;;;;;;4.97;4.57;;;14.90;99.90;;;;;;5533431;25;20340;-39
2024/04/11 12:07:55;;;;;;;4.03;3.38;;;14.90;99.90;;;;;;5509186;26;20005;-40
2024/04/11 12:10:29;;;;;;;4.25;3.83;;;14.90;99.90;;;;;;5533321;25;20007;-37
2024/04/11 12:13:18;;;;;;;5.45;4.15;;;14.90;99.90;;;;;;5472984;26;20082;-36
2024/04/11 12:15:51;;;;;;;5.60;4.70;;;15.00;99.90;;;;;;5529877;25;20045;-38
2024/04/11 12:18:22;;;;;;;6.03;5.53;;;15.00;99.90;;;;;;5510504;26;20112;-34
2024/04/11 12:20:48;;;;;;;5.65;5.15;;;15.00;99.90;;;;;;5533052;25;20001;-39
2024/04/11 12:23:14;;;;;;;6.15;5.60;;;15.00;99.90;;;;;;5510368;25;20832;-39
2024/04/11 12:25:44;;;;;;;5.47;4.97;;;15.00;99.90;;;;;;5529771;25;20004;-38
2024/04/11 12:28:21;;;;;;;5.88;4.97;;;15.00;99.90;;;;;;5512449;25;20495;-35
2024/04/11 12:30:51;;;;;;;4.70;4.30;;;15.10;99.90;;;;;;5530046;25;20440;-37
2024/04/11 12:33:17;;;;;;;4.88;4.47;;;15.10;99.90;;;;;;5512740;25;20005;-39
2024/04/11 12:35:55;;;;;;;6.07;5.47;;;15.20;99.90;;;;;;5526411;25;19997;-39
2024/04/11 12:38:21;;;;;;;6.97;6.25;;;15.20;99.90;;;;;;5518105;25;19998;-36
2024/04/11 12:40:50;;;;;;;5.70;5.15;;;15.30;99.90;;;;;;5527202;25;20623;-36
2024/04/11 12:43:19;;;;;;;4.72;4.32;;;15.30;99.90;;;;;;5521653;25;20009;-37
2024/04/11 12:45:54;;;;;;;5.57;5.13;;;15.30;99.90;;;;;;5523848;25;20011;-34
2024/04/11 12:48:22;;;;;;;5.95;5.45;;;15.40;99.90;;;;;;5522315;25;20001;-37
2024/04/11 12:50:54;;;;;;;5.07;4.65;;;15.40;99.90;;;;;;5522088;25;20012;-34
2024/04/11 12:53:25;;;;;;;4.45;3.88;;;15.40;99.90;;;;;;5525169;25;20085;-36
2024/04/11 12:55:58;;;;;;;6.22;5.40;;;15.50;99.90;;;;;;5519352;25;20009;-37
2024/04/11 12:58:25;;;;;;;5.28;4.78;;;15.50;99.90;;;;;;5527385;25;20008;-38